sensor_id;sensor_type;location;lat;lon;timestamp;temperature;humidity
43043;DHT22;28667;50.758;6.096;2023-02-26T00:02:18;-0.90;99.90
43043;DHT22;28667;50.758;6.096;2023-02-26T00:04:43;-0.90;99.90
43043;DHT22;28667;50.758;6.096;2023-02-26T00:07:09;-0.90;99.90
43043;DHT22;28667;50.758;6.096;2023-02-26T00:09:35;-1.00;99.90
43043;DHT22;28667;50.758;6.096;2023-02-26T00:12:01;-1.00;99.90
43043;DHT22;28667;50.758;6.096;2023-02-26T00:14:27;-1.00;99.90
43043;DHT22;28667;50.758;6.096;2023-02-26T00:17:04;-1.10;99.90
43043;DHT22;28667;50.758;6.096;2023-02-26T00:19:32;-1.10;99.90
43043;DHT22;28667;50.758;6.096;2023-02-26T00:21:58;-1.20;99.90
43043;DHT22;28667;50.758;6.096;2023-02-26T00:24:24;-1.20;99.90
43043;DHT22;28667;50.758;6.096;2023-02-26T00:26:50;-1.20;99.90
43043;DHT22;28667;50.758;6.096;2023-02-26T00:29:16;-1.20;99.90
43043;DHT22;28667;50.758;6.096;2023-02-26T00:31:42;-1.30;99.90
43043;DHT22;28667;50.758;6.096;2023-02-26T00:34:11;-1.30;99.90
43043;DHT22;28667;50.758;6.096;2023-02-26T00:36:48;-1.30;99.90
43043;DHT22;28667;50.758;6.096;2023-02-26T00:42:03;-1.30;99.90
43043;DHT22;28667;50.758;6.096;2023-02-26T00:44:29;-1.30;99.90
43043;DHT22;28667;50.758;6.096;2023-02-26T00:49:49;-1.20;99.90
43043;DHT22;28667;50.758;6.096;2023-02-26T00:54:58;-1.10;99.90
43043;DHT22;28667;50.758;6.096;2023-02-26T00:57:24;-1.10;99.90
43043;DHT22;28667;50.758;6.096;2023-02-26T00:59:50;-1.10;99.90
43043;DHT22;28667;50.758;6.096;2023-02-26T01:02:15;-1.10;99.90
43043;DHT22;28667;50.758;6.096;2023-02-26T01:04:42;-1.00;99.90
43043;DHT22;28667;50.758;6.096;2023-02-26T01:07:08;-1.00;99.90
43043;DHT22;28667;50.758;6.096;2023-02-26T01:09:36;-1.00;99.90
43043;DHT22;28667;50.758;6.096;2023-02-26T01:12:10;-0.90;99.90
43043;DHT22;28667;50.758;6.096;2023-02-26T01:14:38;-0.90;99.90
43043;DHT22;28667;50.758;6.096;2023-02-26T01:17:33;-0.90;99.90
43043;DHT22;28667;50.758;6.096;2023-02-26T01:22:49;-0.90;99.90
43043;DHT22;28667;50.758;6.096;2023-02-26T01:28:05;-0.80;99.90
43043;DHT22;28667;50.758;6.096;2023-02-26T01:30:31;-0.70;99.90
43043;DHT22;28667;50.758;6.096;2023-02-26T01:51:14;-0.60;99.90
43043;DHT22;28667;50.758;6.096;2023-02-26T01:53:39;-0.60;99.90
43043;DHT22;28667;50.758;6.096;2023-02-26T01:56:17;-0.60;99.90
43043;DHT22;28667;50.758;6.096;2023-02-26T01:58:45;-0.50;99.90
43043;DHT22;28667;50.758;6.096;2023-02-26T02:01:12;-0.50;99.90
43043;DHT22;28667;50.758;6.096;2023-02-26T02:03:39;-0.50;99.90
43043;DHT22;28667;50.758;6.096;2023-02-26T02:06:17;-0.50;99.90
43043;DHT22;28667;50.758;6.096;2023-02-26T02:08:43;-0.40;99.90
43043;DHT22;28667;50.758;6.096;2023-02-26T02:11:10;-0.40;99.90
43043;DHT22;28667;50.758;6.096;2023-02-26T02:22:39;-0.40;99.90
43043;DHT22;28667;50.758;6.096;2023-02-26T02:33:18;-0.40;99.90
43043;DHT22;28667;50.758;6.096;2023-02-26T02:35:58;-0.40;99.90
43043;DHT22;28667;50.758;6.096;2023-02-26T02:38:59;-0.40;99.90
43043;DHT22;28667;50.758;6.096;2023-02-26T02:41:46;-0.40;99.90
43043;DHT22;28667;50.758;6.096;2023-02-26T02:44:17;-0.40;99.90
43043;DHT22;28667;50.758;6.096;2023-02-26T02:46:46;-0.40;99.90
43043;DHT22;28667;50.758;6.096;2023-02-26T02:49:23;-0.50;99.90
43043;DHT22;28667;50.758;6.096;2023-02-26T02:52:10;-0.40;99.90
43043;DHT22;28667;50.758;6.096;2023-02-26T02:54:58;-0.40;99.90
43043;DHT22;28667;50.758;6.096;2023-02-26T02:57:33;-0.40;99.90
43043;DHT22;28667;50.758;6.096;2023-02-26T03:00:09;-0.40;99.90
43043;DHT22;28667;50.758;6.096;2023-02-26T03:05:20;-0.40;99.90
43043;DHT22;28667;50.758;6.096;2023-02-26T03:07:51;-0.40;99.90
43043;DHT22;28667;50.758;6.096;2023-02-26T03:10:18;-0.40;99.90
43043;DHT22;28667;50.758;6.096;2023-02-26T03:12:44;-0.40;99.90
43043;DHT22;28667;50.758;6.096;2023-02-26T03:15:11;-0.40;99.90
43043;DHT22;28667;50.758;6.096;2023-02-26T03:17:41;-0.50;99.90
43043;DHT22;28667;50.758;6.096;2023-02-26T03:25:56;-0.70;99.90
43043;DHT22;28667;50.758;6.096;2023-02-26T03:31:08;-0.80;99.90
43043;DHT22;28667;50.758;6.096;2023-02-26T03:36:17;-0.90;99.90
43043;DHT22;28667;50.758;6.096;2023-02-26T03:39:02;-0.90;99.90
43043;DHT22;28667;50.758;6.096;2023-02-26T03:41:34;-1.00;99.90
43043;DHT22;28667;50.758;6.096;2023-02-26T03:44:08;-1.00;99.90
43043;DHT22;28667;50.758;6.096;2023-02-26T03:46:49;-1.10;99.90
43043;DHT22;28667;50.758;6.096;2023-02-26T03:49:28;-1.10;99.90
43043;DHT22;28667;50.758;6.096;2023-02-26T03:51:54;-1.10;99.90
43043;DHT22;28667;50.758;6.096;2023-02-26T03:55:37;-1.20;99.90
43043;DHT22;28667;50.758;6.096;2023-02-26T03:57:52;-1.20;99.90
43043;DHT22;28667;50.758;6.096;2023-02-26T04:00:32;-1.20;99.90
43043;DHT22;28667;50.758;6.096;2023-02-26T04:03:03;-1.20;99.90
43043;DHT22;28667;50.758;6.096;2023-02-26T04:05:35;-1.30;99.90
43043;DHT22;28667;50.758;6.096;2023-02-26T04:08:02;-1.30;99.90
43043;DHT22;28667;50.758;6.096;2023-02-26T04:10:37;-1.30;99.90
43043;DHT22;28667;50.758;6.096;2023-02-26T04:13:05;-1.40;99.90
43043;DHT22;28667;50.758;6.096;2023-02-26T04:15:31;-1.40;99.90
43043;DHT22;28667;50.758;6.096;2023-02-26T04:17:57;-1.40;99.90
43043;DHT22;28667;50.758;6.096;2023-02-26T04:20:23;-1.40;99.90
43043;DHT22;28667;50.758;6.096;2023-02-26T04:22:49;-1.50;99.90
43043;DHT22;28667;50.758;6.096;2023-02-26T04:25:20;-1.50;99.90
43043;DHT22;28667;50.758;6.096;2023-02-26T04:27:46;-1.50;99.90
43043;DHT22;28667;50.758;6.096;2023-02-26T04:30:12;-1.50;99.90
43043;DHT22;28667;50.758;6.096;2023-02-26T04:32:39;-1.50;99.90
43043;DHT22;28667;50.758;6.096;2023-02-26T04:35:06;-1.50;99.90
43043;DHT22;28667;50.758;6.096;2023-02-26T04:37:32;-1.50;99.90
43043;DHT22;28667;50.758;6.096;2023-02-26T04:39:58;-1.60;99.90
43043;DHT22;28667;50.758;6.096;2023-02-26T04:42:24;-1.60;99.90
43043;DHT22;28667;50.758;6.096;2023-02-26T04:44:50;-1.60;99.90
43043;DHT22;28667;50.758;6.096;2023-02-26T04:47:15;-1.60;99.90
43043;DHT22;28667;50.758;6.096;2023-02-26T04:49:42;-1.60;99.90
43043;DHT22;28667;50.758;6.096;2023-02-26T04:52:08;-1.60;99.90
43043;DHT22;28667;50.758;6.096;2023-02-26T04:54:35;-1.60;99.90
43043;DHT22;28667;50.758;6.096;2023-02-26T04:57:03;-1.60;99.90
43043;DHT22;28667;50.758;6.096;2023-02-26T04:59:29;-1.70;99.90
43043;DHT22;28667;50.758;6.096;2023-02-26T05:01:56;-1.70;99.90
43043;DHT22;28667;50.758;6.096;2023-02-26T05:04:25;-1.70;99.90
43043;DHT22;28667;50.758;6.096;2023-02-26T05:06:54;-1.70;99.90
43043;DHT22;28667;50.758;6.096;2023-02-26T05:09:20;-1.70;99.90
43043;DHT22;28667;50.758;6.096;2023-02-26T05:11:46;-1.80;99.90
43043;DHT22;28667;50.758;6.096;2023-02-26T05:14:14;-1.70;99.90
43043;DHT22;28667;50.758;6.096;2023-02-26T05:16:40;-1.80;99.90
43043;DHT22;28667;50.758;6.096;2023-02-26T05:19:06;-1.70;99.90
43043;DHT22;28667;50.758;6.096;2023-02-26T05:21:32;-1.80;99.90
43043;DHT22;28667;50.758;6.096;2023-02-26T05:23:57;-1.80;99.90
43043;DHT22;28667;50.758;6.096;2023-02-26T05:26:23;-1.80;99.90
43043;DHT22;28667;50.758;6.096;2023-02-26T05:28:50;-1.90;99.90
43043;DHT22;28667;50.758;6.096;2023-02-26T05:31:17;-1.90;99.90
43043;DHT22;28667;50.758;6.096;2023-02-26T05:33:43;-1.80;99.90
43043;DHT22;28667;50.758;6.096;2023-02-26T05:36:10;-1.90;99.90
43043;DHT22;28667;50.758;6.096;2023-02-26T05:38:36;-1.90;99.90
43043;DHT22;28667;50.758;6.096;2023-02-26T05:41:02;-1.90;99.90
43043;DHT22;28667;50.758;6.096;2023-02-26T05:43:27;-1.90;99.90
43043;DHT22;28667;50.758;6.096;2023-02-26T05:45:54;-1.90;99.90
43043;DHT22;28667;50.758;6.096;2023-02-26T05:48:20;-1.90;99.90
43043;DHT22;28667;50.758;6.096;2023-02-26T05:50:47;-1.90;99.90
43043;DHT22;28667;50.758;6.096;2023-02-26T05:53:14;-2.00;99.90
43043;DHT22;28667;50.758;6.096;2023-02-26T05:55:39;-2.00;99.90
43043;DHT22;28667;50.758;6.096;2023-02-26T05:58:05;-2.00;99.90
43043;DHT22;28667;50.758;6.096;2023-02-26T06:00:31;-2.00;99.90
43043;DHT22;28667;50.758;6.096;2023-02-26T06:02:57;-2.00;99.90
43043;DHT22;28667;50.758;6.096;2023-02-26T06:05:22;-2.10;99.90
43043;DHT22;28667;50.758;6.096;2023-02-26T06:07:48;-2.10;99.90
43043;DHT22;28667;50.758;6.096;2023-02-26T06:10:14;-2.10;99.90
43043;DHT22;28667;50.758;6.096;2023-02-26T06:12:39;-2.10;99.90
43043;DHT22;28667;50.758;6.096;2023-02-26T06:15:06;-2.10;99.90
43043;DHT22;28667;50.758;6.096;2023-02-26T06:17:33;-2.10;99.90
43043;DHT22;28667;50.758;6.096;2023-02-26T06:19:59;-2.10;99.90
43043;DHT22;28667;50.758;6.096;2023-02-26T06:22:25;-2.10;99.90
43043;DHT22;28667;50.758;6.096;2023-02-26T06:24:50;-2.10;99.90
43043;DHT22;28667;50.758;6.096;2023-02-26T06:27:16;-2.10;99.90
43043;DHT22;28667;50.758;6.096;2023-02-26T06:29:42;-2.10;99.90
43043;DHT22;28667;50.758;6.096;2023-02-26T06:32:08;-2.10;99.90
43043;DHT22;28667;50.758;6.096;2023-02-26T06:34:34;-2.10;99.90
43043;DHT22;28667;50.758;6.096;2023-02-26T06:37:00;-2.10;99.90
43043;DHT22;28667;50.758;6.096;2023-02-26T06:39:25;-2.10;99.90
43043;DHT22;28667;50.758;6.096;2023-02-26T06:41:51;-2.10;99.90
43043;DHT22;28667;50.758;6.096;2023-02-26T06:44:17;-2.10;99.90
43043;DHT22;28667;50.758;6.096;2023-02-26T06:46:42;-2.10;99.90
43043;DHT22;28667;50.758;6.096;2023-02-26T06:49:08;-2.10;99.90
43043;DHT22;28667;50.758;6.096;2023-02-26T06:51:34;-2.10;99.90
43043;DHT22;28667;50.758;6.096;2023-02-26T06:54:00;-2.10;99.90
43043;DHT22;28667;50.758;6.096;2023-02-26T06:56:26;-2.10;99.90
43043;DHT22;28667;50.758;6.096;2023-02-26T06:58:52;-2.10;99.90
43043;DHT22;28667;50.758;6.096;2023-02-26T07:01:19;-2.10;99.90
43043;DHT22;28667;50.758;6.096;2023-02-26T07:03:44;-2.00;99.90
43043;DHT22;28667;50.758;6.096;2023-02-26T07:06:11;-2.10;99.90
43043;DHT22;28667;50.758;6.096;2023-02-26T07:08:38;-2.00;99.90
43043;DHT22;28667;50.758;6.096;2023-02-26T07:11:04;-2.00;99.90
43043;DHT22;28667;50.758;6.096;2023-02-26T07:13:30;-2.00;99.90
43043;DHT22;28667;50.758;6.096;2023-02-26T07:15:56;-2.00;99.90
43043;DHT22;28667;50.758;6.096;2023-02-26T07:18:22;-2.00;99.90
43043;DHT22;28667;50.758;6.096;2023-02-26T07:20:48;-2.00;99.90
43043;DHT22;28667;50.758;6.096;2023-02-26T07:23:15;-2.00;99.90
43043;DHT22;28667;50.758;6.096;2023-02-26T07:25:40;-1.90;99.90
43043;DHT22;28667;50.758;6.096;2023-02-26T07:28:06;-2.00;99.90
43043;DHT22;28667;50.758;6.096;2023-02-26T07:30:32;-1.90;99.90
43043;DHT22;28667;50.758;6.096;2023-02-26T07:32:58;-1.90;99.90
43043;DHT22;28667;50.758;6.096;2023-02-26T07:35:24;-2.00;99.90
43043;DHT22;28667;50.758;6.096;2023-02-26T07:37:50;-1.90;99.90
43043;DHT22;28667;50.758;6.096;2023-02-26T07:40:17;-1.90;99.90
43043;DHT22;28667;50.758;6.096;2023-02-26T07:42:43;-1.80;99.90
43043;DHT22;28667;50.758;6.096;2023-02-26T07:45:09;-1.80;99.90
43043;DHT22;28667;50.758;6.096;2023-02-26T07:47:36;-1.80;99.90
43043;DHT22;28667;50.758;6.096;2023-02-26T07:50:02;-1.80;99.90
43043;DHT22;28667;50.758;6.096;2023-02-26T07:52:28;-1.80;99.90
43043;DHT22;28667;50.758;6.096;2023-02-26T07:54:54;-1.80;99.90
43043;DHT22;28667;50.758;6.096;2023-02-26T07:57:20;-1.80;99.90
43043;DHT22;28667;50.758;6.096;2023-02-26T07:59:45;-1.80;99.90
43043;DHT22;28667;50.758;6.096;2023-02-26T08:02:12;-1.80;99.90
43043;DHT22;28667;50.758;6.096;2023-02-26T08:04:38;-1.80;99.90
43043;DHT22;28667;50.758;6.096;2023-02-26T08:07:04;-1.80;99.90
43043;DHT22;28667;50.758;6.096;2023-02-26T08:09:30;-1.80;99.90
43043;DHT22;28667;50.758;6.096;2023-02-26T08:11:56;-1.70;99.90
43043;DHT22;28667;50.758;6.096;2023-02-26T08:14:22;-1.70;99.90
43043;DHT22;28667;50.758;6.096;2023-02-26T08:16:48;-1.70;99.90
43043;DHT22;28667;50.758;6.096;2023-02-26T08:19:14;-1.60;99.90
43043;DHT22;28667;50.758;6.096;2023-02-26T08:21:40;-1.60;99.90
43043;DHT22;28667;50.758;6.096;2023-02-26T08:24:06;-1.60;99.90
43043;DHT22;28667;50.758;6.096;2023-02-26T08:26:35;-1.50;99.90
43043;DHT22;28667;50.758;6.096;2023-02-26T08:29:01;-1.50;99.90
43043;DHT22;28667;50.758;6.096;2023-02-26T08:31:26;-1.40;99.90
43043;DHT22;28667;50.758;6.096;2023-02-26T08:33:53;-1.40;99.90
43043;DHT22;28667;50.758;6.096;2023-02-26T08:36:18;-1.40;99.90
43043;DHT22;28667;50.758;6.096;2023-02-26T08:38:46;-1.40;99.90
43043;DHT22;28667;50.758;6.096;2023-02-26T08:41:12;-1.30;99.90
43043;DHT22;28667;50.758;6.096;2023-02-26T08:43:38;-1.30;99.90
43043;DHT22;28667;50.758;6.096;2023-02-26T08:46:04;-1.20;99.90
43043;DHT22;28667;50.758;6.096;2023-02-26T08:48:29;-1.10;99.90
43043;DHT22;28667;50.758;6.096;2023-02-26T08:50:55;-1.00;99.90
43043;DHT22;28667;50.758;6.096;2023-02-26T08:53:21;-0.90;99.90
43043;DHT22;28667;50.758;6.096;2023-02-26T08:55:49;-0.80;99.90
43043;DHT22;28667;50.758;6.096;2023-02-26T08:58:15;-0.70;99.90
43043;DHT22;28667;50.758;6.096;2023-02-26T09:00:41;-0.60;99.90
43043;DHT22;28667;50.758;6.096;2023-02-26T09:03:06;-0.60;99.90
43043;DHT22;28667;50.758;6.096;2023-02-26T09:05:32;-0.50;99.90
43043;DHT22;28667;50.758;6.096;2023-02-26T09:07:58;-0.50;99.90
43043;DHT22;28667;50.758;6.096;2023-02-26T09:10:24;-0.50;99.90
43043;DHT22;28667;50.758;6.096;2023-02-26T09:12:49;-0.60;99.90
43043;DHT22;28667;50.758;6.096;2023-02-26T09:15:15;-0.60;99.90
43043;DHT22;28667;50.758;6.096;2023-02-26T09:17:41;-0.60;99.90
43043;DHT22;28667;50.758;6.096;2023-02-26T09:20:08;-0.70;99.90
43043;DHT22;28667;50.758;6.096;2023-02-26T09:22:34;-0.70;99.90
43043;DHT22;28667;50.758;6.096;2023-02-26T09:25:01;-0.70;99.90
43043;DHT22;28667;50.758;6.096;2023-02-26T09:27:27;-0.70;99.90
43043;DHT22;28667;50.758;6.096;2023-02-26T09:29:53;-0.70;99.90
43043;DHT22;28667;50.758;6.096;2023-02-26T09:32:18;-0.70;99.90
43043;DHT22;28667;50.758;6.096;2023-02-26T09:34:44;-0.70;99.90
43043;DHT22;28667;50.758;6.096;2023-02-26T09:37:10;-0.70;99.90
43043;DHT22;28667;50.758;6.096;2023-02-26T09:39:36;-0.70;99.90
43043;DHT22;28667;50.758;6.096;2023-02-26T09:45:13;-0.60;99.90
43043;DHT22;28667;50.758;6.096;2023-02-26T09:47:47;-0.60;99.90
43043;DHT22;28667;50.758;6.096;2023-02-26T09:53:00;-0.50;99.90
43043;DHT22;28667;50.758;6.096;2023-02-26T09:56:03;-0.50;99.90
43043;DHT22;28667;50.758;6.096;2023-02-26T09:58:33;-0.50;99.90
43043;DHT22;28667;50.758;6.096;2023-02-26T10:01:22;-0.50;99.90
43043;DHT22;28667;50.758;6.096;2023-02-26T10:07:15;-0.50;99.90
43043;DHT22;28667;50.758;6.096;2023-02-26T10:12:30;-0.50;99.90
43043;DHT22;28667;50.758;6.096;2023-02-26T10:21:10;-0.40;99.90
43043;DHT22;28667;50.758;6.096;2023-02-26T10:23:39;-0.20;99.90
43043;DHT22;28667;50.758;6.096;2023-02-26T10:26:20;-0.10;99.90
43043;DHT22;28667;50.758;6.096;2023-02-26T10:34:17;0.20;99.90
43043;DHT22;28667;50.758;6.096;2023-02-26T10:42:35;0.40;99.90
43043;DHT22;28667;50.758;6.096;2023-02-26T10:50:47;0.40;99.90
43043;DHT22;28667;50.758;6.096;2023-02-26T10:53:13;0.30;99.90
43043;DHT22;28667;50.758;6.096;2023-02-26T10:58:16;0.30;99.90
43043;DHT22;28667;50.758;6.096;2023-02-26T11:00:46;0.30;99.90
43043;DHT22;28667;50.758;6.096;2023-02-26T11:03:17;0.30;99.90
43043;DHT22;28667;50.758;6.096;2023-02-26T11:05:44;0.40;99.90
43043;DHT22;28667;50.758;6.096;2023-02-26T11:08:27;0.40;99.90
43043;DHT22;28667;50.758;6.096;2023-02-26T11:10:55;0.50;99.90
43043;DHT22;28667;50.758;6.096;2023-02-26T11:13:23;0.60;99.90
43043;DHT22;28667;50.758;6.096;2023-02-26T11:15:51;0.60;99.90
43043;DHT22;28667;50.758;6.096;2023-02-26T11:18:29;0.70;99.90
43043;DHT22;28667;50.758;6.096;2023-02-26T11:20:57;0.80;99.90
43043;DHT22;28667;50.758;6.096;2023-02-26T11:23:27;1.00;99.90
43043;DHT22;28667;50.758;6.096;2023-02-26T11:26:16;1.10;99.90
43043;DHT22;28667;50.758;6.096;2023-02-26T11:28:48;1.20;99.90
43043;DHT22;28667;50.758;6.096;2023-02-26T11:31:17;1.30;99.90
43043;DHT22;28667;50.758;6.096;2023-02-26T11:36:21;1.40;99.90
43043;DHT22;28667;50.758;6.096;2023-02-26T11:39:18;1.30;99.90
43043;DHT22;28667;50.758;6.096;2023-02-26T11:41:46;1.30;99.90
43043;DHT22;28667;50.758;6.096;2023-02-26T11:44:20;1.30;99.90
43043;DHT22;28667;50.758;6.096;2023-02-26T11:46:55;1.30;99.90
43043;DHT22;28667;50.758;6.096;2023-02-26T11:49:26;1.30;99.90
43043;DHT22;28667;50.758;6.096;2023-02-26T11:52:14;1.30;99.90
43043;DHT22;28667;50.758;6.096;2023-02-26T11:54:43;1.40;99.90
43043;DHT22;28667;50.758;6.096;2023-02-26T11:57:16;1.50;99.90
43043;DHT22;28667;50.758;6.096;2023-02-26T11:59:47;1.50;99.90
43043;DHT22;28667;50.758;6.096;2023-02-26T12:02:16;1.50;99.40
43043;DHT22;28667;50.758;6.096;2023-02-26T12:04:44;1.50;99.50
43043;DHT22;28667;50.758;6.096;2023-02-26T12:07:14;1.40;98.90
43043;DHT22;28667;50.758;6.096;2023-02-26T12:09:40;1.40;99.10
43043;DHT22;28667;50.758;6.096;2023-02-26T12:39:02;1.10;99.70
43043;DHT22;28667;50.758;6.096;2023-02-26T12:41:56;1.10;99.50
43043;DHT22;28667;50.758;6.096;2023-02-26T13:19:56;1.90;96.70
43043;DHT22;28667;50.758;6.096;2023-02-26T13:22:38;1.90;97.40
43043;DHT22;28667;50.758;6.096;2023-02-26T13:27:36;2.00;95.60
43043;DHT22;28667;50.758;6.096;2023-02-26T13:32:41;2.00;95.70
43043;DHT22;28667;50.758;6.096;2023-02-26T13:35:37;2.10;95.20
43043;DHT22;28667;50.758;6.096;2023-02-26T13:38:22;2.30;95.40
43043;DHT22;28667;50.758;6.096;2023-02-26T13:43:54;2.50;94.70
43043;DHT22;28667;50.758;6.096;2023-02-26T13:51:44;2.50;95.70
43043;DHT22;28667;50.758;6.096;2023-02-26T13:59:23;2.30;95.50
43043;DHT22;28667;50.758;6.096;2023-02-26T14:01:59;2.20;95.00
43043;DHT22;28667;50.758;6.096;2023-02-26T14:04:31;2.20;99.70
43043;DHT22;28667;50.758;6.096;2023-02-26T14:07:11;2.30;97.80
43043;DHT22;28667;50.758;6.096;2023-02-26T14:09:56;2.30;95.00
43043;DHT22;28667;50.758;6.096;2023-02-26T14:12:36;2.30;94.70
43043;DHT22;28667;50.758;6.096;2023-02-26T14:17:50;2.40;95.20
43043;DHT22;28667;50.758;6.096;2023-02-26T14:20:26;2.50;94.00
43043;DHT22;28667;50.758;6.096;2023-02-26T14:25:39;2.40;92.80
43043;DHT22;28667;50.758;6.096;2023-02-26T14:30:52;2.40;93.70
43043;DHT22;28667;50.758;6.096;2023-02-26T14:33:29;2.40;93.70
43043;DHT22;28667;50.758;6.096;2023-02-26T14:35:56;2.50;93.80
43043;DHT22;28667;50.758;6.096;2023-02-26T14:38:26;2.50;94.40
43043;DHT22;28667;50.758;6.096;2023-02-26T14:43:37;2.50;93.40
43043;DHT22;28667;50.758;6.096;2023-02-26T14:46:06;2.50;93.40
43043;DHT22;28667;50.758;6.096;2023-02-26T14:48:33;2.40;93.30
43043;DHT22;28667;50.758;6.096;2023-02-26T14:51:19;2.40;93.60
43043;DHT22;28667;50.758;6.096;2023-02-26T14:54:06;2.50;93.20
43043;DHT22;28667;50.758;6.096;2023-02-26T15:05:21;2.60;92.80
43043;DHT22;28667;50.758;6.096;2023-02-26T15:19:36;2.60;93.20
43043;DHT22;28667;50.758;6.096;2023-02-26T15:24:43;2.50;92.70
43043;DHT22;28667;50.758;6.096;2023-02-26T15:27:15;2.50;92.70
43043;DHT22;28667;50.758;6.096;2023-02-26T15:29:42;2.50;93.10
43043;DHT22;28667;50.758;6.096;2023-02-26T15:35:03;2.60;94.00
43043;DHT22;28667;50.758;6.096;2023-02-26T15:37:30;2.60;94.10
43043;DHT22;28667;50.758;6.096;2023-02-26T15:39:59;2.70;93.60
43043;DHT22;28667;50.758;6.096;2023-02-26T15:42:32;2.70;93.80
43043;DHT22;28667;50.758;6.096;2023-02-26T15:45:00;2.60;92.90
43043;DHT22;28667;50.758;6.096;2023-02-26T15:47:28;2.60;92.60
43043;DHT22;28667;50.758;6.096;2023-02-26T15:49:55;2.50;93.10
43043;DHT22;28667;50.758;6.096;2023-02-26T15:52:22;2.40;93.30
43043;DHT22;28667;50.758;6.096;2023-02-26T15:54:55;2.40;93.30
43043;DHT22;28667;50.758;6.096;2023-02-26T15:57:23;2.30;93.50
43043;DHT22;28667;50.758;6.096;2023-02-26T16:00:01;2.30;93.90
43043;DHT22;28667;50.758;6.096;2023-02-26T16:02:40;2.40;93.60
43043;DHT22;28667;50.758;6.096;2023-02-26T16:05:07;2.40;93.80
43043;DHT22;28667;50.758;6.096;2023-02-26T16:07:33;2.40;93.70
43043;DHT22;28667;50.758;6.096;2023-02-26T16:10:05;2.40;93.70
43043;DHT22;28667;50.758;6.096;2023-02-26T16:12:38;2.30;93.60
43043;DHT22;28667;50.758;6.096;2023-02-26T16:15:19;2.30;94.10
43043;DHT22;28667;50.758;6.096;2023-02-26T16:17:50;2.20;94.20
43043;DHT22;28667;50.758;6.096;2023-02-26T16:20:23;2.10;93.50
43043;DHT22;28667;50.758;6.096;2023-02-26T16:22:52;2.10;93.80
43043;DHT22;28667;50.758;6.096;2023-02-26T16:28:23;2.10;94.50
43043;DHT22;28667;50.758;6.096;2023-02-26T16:30:53;2.00;94.20
43043;DHT22;28667;50.758;6.096;2023-02-26T16:33:22;2.00;94.70
43043;DHT22;28667;50.758;6.096;2023-02-26T16:36:11;1.90;94.90
43043;DHT22;28667;50.758;6.096;2023-02-26T16:38:44;1.90;95.40
43043;DHT22;28667;50.758;6.096;2023-02-26T16:41:10;1.90;96.10
43043;DHT22;28667;50.758;6.096;2023-02-26T16:46:19;1.80;95.90
43043;DHT22;28667;50.758;6.096;2023-02-26T16:51:20;1.70;95.60
43043;DHT22;28667;50.758;6.096;2023-02-26T16:54:01;1.60;95.20
43043;DHT22;28667;50.758;6.096;2023-02-26T16:56:35;1.60;95.70
43043;DHT22;28667;50.758;6.096;2023-02-26T16:59:16;1.50;95.30
43043;DHT22;28667;50.758;6.096;2023-02-26T17:01:58;1.50;95.90
43043;DHT22;28667;50.758;6.096;2023-02-26T17:04:28;1.40;96.10
43043;DHT22;28667;50.758;6.096;2023-02-26T17:06:57;1.40;96.20
43043;DHT22;28667;50.758;6.096;2023-02-26T17:14:37;1.30;97.20
43043;DHT22;28667;50.758;6.096;2023-02-26T17:17:05;1.20;97.50
43043;DHT22;28667;50.758;6.096;2023-02-26T17:19:30;1.20;97.40
43043;DHT22;28667;50.758;6.096;2023-02-26T17:21:57;1.20;97.60
43043;DHT22;28667;50.758;6.096;2023-02-26T17:24:32;1.10;97.70
43043;DHT22;28667;50.758;6.096;2023-02-26T17:26:59;1.10;98.10
43043;DHT22;28667;50.758;6.096;2023-02-26T17:29:45;1.10;98.00
43043;DHT22;28667;50.758;6.096;2023-02-26T17:32:21;1.10;98.20
43043;DHT22;28667;50.758;6.096;2023-02-26T17:34:47;1.00;98.30
43043;DHT22;28667;50.758;6.096;2023-02-26T17:37:14;1.00;98.60
43043;DHT22;28667;50.758;6.096;2023-02-26T17:39:40;1.00;98.70
43043;DHT22;28667;50.758;6.096;2023-02-26T17:42:15;0.90;98.60
43043;DHT22;28667;50.758;6.096;2023-02-26T17:44:44;0.90;99.10
43043;DHT22;28667;50.758;6.096;2023-02-26T17:47:21;0.90;99.20
43043;DHT22;28667;50.758;6.096;2023-02-26T17:49:47;0.80;99.50
43043;DHT22;28667;50.758;6.096;2023-02-26T17:52:14;0.80;99.70
43043;DHT22;28667;50.758;6.096;2023-02-26T17:54:40;0.80;99.80
43043;DHT22;28667;50.758;6.096;2023-02-26T17:57:08;0.70;99.90
43043;DHT22;28667;50.758;6.096;2023-02-26T17:59:34;0.70;99.90
43043;DHT22;28667;50.758;6.096;2023-02-26T18:02:00;0.70;99.90
43043;DHT22;28667;50.758;6.096;2023-02-26T18:04:25;0.60;99.90
43043;DHT22;28667;50.758;6.096;2023-02-26T18:06:51;0.60;99.90
43043;DHT22;28667;50.758;6.096;2023-02-26T18:09:18;0.60;99.90
43043;DHT22;28667;50.758;6.096;2023-02-26T18:11:43;0.50;99.90
43043;DHT22;28667;50.758;6.096;2023-02-26T18:14:09;0.40;99.90
43043;DHT22;28667;50.758;6.096;2023-02-26T18:16:39;0.30;99.90
43043;DHT22;28667;50.758;6.096;2023-02-26T18:19:05;0.30;99.90
43043;DHT22;28667;50.758;6.096;2023-02-26T18:21:32;0.20;99.90
43043;DHT22;28667;50.758;6.096;2023-02-26T18:23:58;0.20;99.90
43043;DHT22;28667;50.758;6.096;2023-02-26T18:26:26;0.10;99.90
43043;DHT22;28667;50.758;6.096;2023-02-26T18:28:53;0.10;99.90
43043;DHT22;28667;50.758;6.096;2023-02-26T18:31:20;0.10;99.90
43043;DHT22;28667;50.758;6.096;2023-02-26T18:33:46;0.00;99.90
43043;DHT22;28667;50.758;6.096;2023-02-26T18:36:23;0.00;99.90
43043;DHT22;28667;50.758;6.096;2023-02-26T18:38:54;0.00;99.90
43043;DHT22;28667;50.758;6.096;2023-02-26T18:41:23;-0.10;99.90
43043;DHT22;28667;50.758;6.096;2023-02-26T18:43:49;-0.10;99.90
43043;DHT22;28667;50.758;6.096;2023-02-26T18:46:14;-0.20;99.90
43043;DHT22;28667;50.758;6.096;2023-02-26T18:48:40;-0.20;99.90
43043;DHT22;28667;50.758;6.096;2023-02-26T18:51:06;-0.20;99.90
43043;DHT22;28667;50.758;6.096;2023-02-26T18:53:32;-0.30;99.90
43043;DHT22;28667;50.758;6.096;2023-02-26T18:55:58;-0.30;99.90
43043;DHT22;28667;50.758;6.096;2023-02-26T18:58:24;-0.30;99.90
43043;DHT22;28667;50.758;6.096;2023-02-26T19:00:50;-0.40;99.90
43043;DHT22;28667;50.758;6.096;2023-02-26T19:03:16;-0.40;99.90
43043;DHT22;28667;50.758;6.096;2023-02-26T19:05:42;-0.40;99.90
43043;DHT22;28667;50.758;6.096;2023-02-26T19:08:08;-0.50;99.90
43043;DHT22;28667;50.758;6.096;2023-02-26T19:10:34;-0.50;99.90
43043;DHT22;28667;50.758;6.096;2023-02-26T19:13:00;-0.50;99.90
43043;DHT22;28667;50.758;6.096;2023-02-26T19:15:26;-0.50;99.90
43043;DHT22;28667;50.758;6.096;2023-02-26T19:17:52;-0.50;99.90
43043;DHT22;28667;50.758;6.096;2023-02-26T19:20:18;-0.50;99.90
43043;DHT22;28667;50.758;6.096;2023-02-26T19:22:44;-0.50;99.90
43043;DHT22;28667;50.758;6.096;2023-02-26T19:25:11;-0.50;99.90
43043;DHT22;28667;50.758;6.096;2023-02-26T19:27:37;-0.50;99.90
43043;DHT22;28667;50.758;6.096;2023-02-26T19:30:04;-0.50;99.90
43043;DHT22;28667;50.758;6.096;2023-02-26T19:32:30;-0.60;99.90
43043;DHT22;28667;50.758;6.096;2023-02-26T19:34:56;-0.60;99.90
43043;DHT22;28667;50.758;6.096;2023-02-26T19:37:22;-0.60;99.90
43043;DHT22;28667;50.758;6.096;2023-02-26T19:39:48;-0.60;99.90
43043;DHT22;28667;50.758;6.096;2023-02-26T19:42:14;-0.70;99.90
43043;DHT22;28667;50.758;6.096;2023-02-26T19:44:40;-0.70;99.90